sensor_id;sensor_type;location;lat;lon;timestamp;temperature;humidity
19552;DHT22;9921;47.186;9.778;2024-03-06T00:00:15;5.80;99.90
19552;DHT22;9921;47.186;9.778;2024-03-06T00:02:43;5.80;99.90
19552;DHT22;9921;47.186;9.778;2024-03-06T00:05:12;5.80;99.90
19552;DHT22;9921;47.186;9.778;2024-03-06T00:07:39;5.80;99.90
19552;DHT22;9921;47.186;9.778;2024-03-06T00:10:08;5.70;99.90
19552;DHT22;9921;47.186;9.778;2024-03-06T00:12:42;5.70;99.90
19552;DHT22;9921;47.186;9.778;2024-03-06T00:15:09;5.70;99.90
19552;DHT22;9921;47.186;9.778;2024-03-06T00:17:37;5.70;99.90
19552;DHT22;9921;47.186;9.778;2024-03-06T00:20:08;5.60;99.90
19552;DHT22;9921;47.186;9.778;2024-03-06T00:22:36;5.60;99.90
19552;DHT22;9921;47.186;9.778;2024-03-06T00:25:05;5.50;99.90
19552;DHT22;9921;47.186;9.778;2024-03-06T00:27:35;5.60;99.90
19552;DHT22;9921;47.186;9.778;2024-03-06T00:30:04;5.60;99.90
19552;DHT22;9921;47.186;9.778;2024-03-06T00:32:34;5.70;99.90
19552;DHT22;9921;47.186;9.778;2024-03-06T00:35:03;5.70;99.90
19552;DHT22;9921;47.186;9.778;2024-03-06T00:37:30;5.70;99.90
19552;DHT22;9921;47.186;9.778;2024-03-06T00:39:59;5.80;99.90
19552;DHT22;9921;47.186;9.778;2024-03-06T00:42:27;5.80;99.90
19552;DHT22;9921;47.186;9.778;2024-03-06T00:44:54;5.70;99.90
19552;DHT22;9921;47.186;9.778;2024-03-06T00:47:24;5.70;99.90
19552;DHT22;9921;47.186;9.778;2024-03-06T00:49:51;5.70;99.90
19552;DHT22;9921;47.186;9.778;2024-03-06T00:52:17;5.70;99.90
19552;DHT22;9921;47.186;9.778;2024-03-06T00:54:53;5.80;99.90
19552;DHT22;9921;47.186;9.778;2024-03-06T00:57:21;5.80;99.90
19552;DHT22;9921;47.186;9.778;2024-03-06T00:59:48;5.80;99.90
19552;DHT22;9921;47.186;9.778;2024-03-06T01:02:15;5.80;99.90
19552;DHT22;9921;47.186;9.778;2024-03-06T01:04:43;5.80;99.90
19552;DHT22;9921;47.186;9.778;2024-03-06T01:07:12;5.80;99.90
19552;DHT22;9921;47.186;9.778;2024-03-06T01:09:39;5.80;99.90
19552;DHT22;9921;47.186;9.778;2024-03-06T01:12:05;5.80;99.90
19552;DHT22;9921;47.186;9.778;2024-03-06T01:14:32;5.80;99.90
19552;DHT22;9921;47.186;9.778;2024-03-06T01:16:59;5.80;99.90
19552;DHT22;9921;47.186;9.778;2024-03-06T01:19:27;5.80;99.90
19552;DHT22;9921;47.186;9.778;2024-03-06T01:21:58;5.80;99.90
19552;DHT22;9921;47.186;9.778;2024-03-06T01:24:25;5.80;99.90
19552;DHT22;9921;47.186;9.778;2024-03-06T01:26:52;5.70;99.90
19552;DHT22;9921;47.186;9.778;2024-03-06T01:29:19;5.70;99.90
19552;DHT22;9921;47.186;9.778;2024-03-06T01:31:46;5.60;99.90
19552;DHT22;9921;47.186;9.778;2024-03-06T01:34:13;5.70;99.90
19552;DHT22;9921;47.186;9.778;2024-03-06T01:36:42;5.70;99.90
19552;DHT22;9921;47.186;9.778;2024-03-06T01:39:13;5.70;99.90
19552;DHT22;9921;47.186;9.778;2024-03-06T01:41:52;5.70;99.90
19552;DHT22;9921;47.186;9.778;2024-03-06T01:44:19;5.60;99.90
19552;DHT22;9921;47.186;9.778;2024-03-06T01:46:48;5.60;99.90
19552;DHT22;9921;47.186;9.778;2024-03-06T01:49:15;5.60;99.90
19552;DHT22;9921;47.186;9.778;2024-03-06T01:51:45;5.60;99.90
19552;DHT22;9921;47.186;9.778;2024-03-06T01:54:16;5.60;99.90
19552;DHT22;9921;47.186;9.778;2024-03-06T01:56:45;5.60;99.90
19552;DHT22;9921;47.186;9.778;2024-03-06T01:59:15;5.60;99.90
19552;DHT22;9921;47.186;9.778;2024-03-06T02:01:43;5.50;99.90
19552;DHT22;9921;47.186;9.778;2024-03-06T02:04:12;5.60;99.90
19552;DHT22;9921;47.186;9.778;2024-03-06T02:06:41;5.70;99.90
19552;DHT22;9921;47.186;9.778;2024-03-06T02:09:08;5.70;99.90
19552;DHT22;9921;47.186;9.778;2024-03-06T02:11:37;5.70;99.90
19552;DHT22;9921;47.186;9.778;2024-03-06T02:14:07;5.70;99.90
19552;DHT22;9921;47.186;9.778;2024-03-06T02:16:35;5.60;99.90
19552;DHT22;9921;47.186;9.778;2024-03-06T02:19:04;5.60;99.90
19552;DHT22;9921;47.186;9.778;2024-03-06T02:21:39;5.60;99.90
19552;DHT22;9921;47.186;9.778;2024-03-06T02:24:07;5.60;99.90
19552;DHT22;9921;47.186;9.778;2024-03-06T02:26:45;5.60;99.90
19552;DHT22;9921;47.186;9.778;2024-03-06T02:29:15;5.60;99.90
19552;DHT22;9921;47.186;9.778;2024-03-06T02:31:42;5.60;99.90
19552;DHT22;9921;47.186;9.778;2024-03-06T02:34:09;5.60;99.90
19552;DHT22;9921;47.186;9.778;2024-03-06T02:36:41;5.60;99.90
19552;DHT22;9921;47.186;9.778;2024-03-06T02:39:10;5.60;99.90
19552;DHT22;9921;47.186;9.778;2024-03-06T02:41:39;5.60;99.90
19552;DHT22;9921;47.186;9.778;2024-03-06T02:44:05;5.50;99.90
19552;DHT22;9921;47.186;9.778;2024-03-06T02:46:32;5.50;99.90
19552;DHT22;9921;47.186;9.778;2024-03-06T02:48:59;5.50;99.90
19552;DHT22;9921;47.186;9.778;2024-03-06T02:51:27;5.50;99.90
19552;DHT22;9921;47.186;9.778;2024-03-06T02:53:57;5.50;99.90
19552;DHT22;9921;47.186;9.778;2024-03-06T02:56:25;5.50;99.90
19552;DHT22;9921;47.186;9.778;2024-03-06T02:58:54;5.40;99.90
19552;DHT22;9921;47.186;9.778;2024-03-06T03:01:23;5.40;99.90
19552;DHT22;9921;47.186;9.778;2024-03-06T03:03:53;5.40;99.90
19552;DHT22;9921;47.186;9.778;2024-03-06T03:06:22;5.40;99.90
19552;DHT22;9921;47.186;9.778;2024-03-06T03:08:50;5.40;99.90
19552;DHT22;9921;47.186;9.778;2024-03-06T03:11:24;5.40;99.90
19552;DHT22;9921;47.186;9.778;2024-03-06T03:13:54;5.40;99.90
19552;DHT22;9921;47.186;9.778;2024-03-06T03:16:22;5.40;99.90
19552;DHT22;9921;47.186;9.778;2024-03-06T03:18:49;5.40;99.90
19552;DHT22;9921;47.186;9.778;2024-03-06T03:21:17;5.40;99.90
19552;DHT22;9921;47.186;9.778;2024-03-06T03:23:46;5.40;99.90
19552;DHT22;9921;47.186;9.778;2024-03-06T03:26:12;5.40;99.90
19552;DHT22;9921;47.186;9.778;2024-03-06T03:28:45;5.40;99.90
19552;DHT22;9921;47.186;9.778;2024-03-06T03:31:13;5.40;99.90
19552;DHT22;9921;47.186;9.778;2024-03-06T03:33:43;5.40;99.90
19552;DHT22;9921;47.186;9.778;2024-03-06T03:36:10;5.40;99.90
19552;DHT22;9921;47.186;9.778;2024-03-06T03:38:37;5.40;99.90
19552;DHT22;9921;47.186;9.778;2024-03-06T03:41:09;5.40;99.90
19552;DHT22;9921;47.186;9.778;2024-03-06T03:43:38;5.40;99.90
19552;DHT22;9921;47.186;9.778;2024-03-06T03:46:06;5.40;99.90
19552;DHT22;9921;47.186;9.778;2024-03-06T03:48:33;5.40;99.90
19552;DHT22;9921;47.186;9.778;2024-03-06T03:51:07;5.40;99.90
19552;DHT22;9921;47.186;9.778;2024-03-06T03:53:37;5.30;99.90
19552;DHT22;9921;47.186;9.778;2024-03-06T03:56:07;5.30;99.90
19552;DHT22;9921;47.186;9.778;2024-03-06T03:58:34;5.30;99.90
19552;DHT22;9921;47.186;9.778;2024-03-06T04:01:03;5.20;99.90
19552;DHT22;9921;47.186;9.778;2024-03-06T04:03:31;5.30;99.90
19552;DHT22;9921;47.186;9.778;2024-03-06T04:05:58;5.30;99.90
19552;DHT22;9921;47.186;9.778;2024-03-06T04:08:27;5.30;99.90
19552;DHT22;9921;47.186;9.778;2024-03-06T04:10:54;5.30;99.90
19552;DHT22;9921;47.186;9.778;2024-03-06T04:13:21;5.30;99.90
19552;DHT22;9921;47.186;9.778;2024-03-06T04:15:47;5.30;99.90
19552;DHT22;9921;47.186;9.778;2024-03-06T04:18:16;5.30;99.90
19552;DHT22;9921;47.186;9.778;2024-03-06T04:20:44;5.20;99.90
19552;DHT22;9921;47.186;9.778;2024-03-06T04:23:13;5.20;99.90
19552;DHT22;9921;47.186;9.778;2024-03-06T04:25:51;5.20;99.90
19552;DHT22;9921;47.186;9.778;2024-03-06T04:28:17;5.20;99.90
19552;DHT22;9921;47.186;9.778;2024-03-06T04:30:45;5.20;99.90
19552;DHT22;9921;47.186;9.778;2024-03-06T04:33:11;5.20;99.90
19552;DHT22;9921;47.186;9.778;2024-03-06T04:35:40;5.20;99.90
19552;DHT22;9921;47.186;9.778;2024-03-06T04:38:08;5.20;99.90
19552;DHT22;9921;47.186;9.778;2024-03-06T04:40:39;5.10;99.90
19552;DHT22;9921;47.186;9.778;2024-03-06T04:43:06;5.10;99.90
19552;DHT22;9921;47.186;9.778;2024-03-06T04:45:36;5.10;99.90
19552;DHT22;9921;47.186;9.778;2024-03-06T04:48:03;5.20;99.90
19552;DHT22;9921;47.186;9.778;2024-03-06T04:50:33;5.10;99.90
19552;DHT22;9921;47.186;9.778;2024-03-06T04:53:03;5.10;99.90
19552;DHT22;9921;47.186;9.778;2024-03-06T04:55:31;5.10;99.90
19552;DHT22;9921;47.186;9.778;2024-03-06T04:57:57;5.10;99.90
19552;DHT22;9921;47.186;9.778;2024-03-06T05:00:24;5.00;99.90
19552;DHT22;9921;47.186;9.778;2024-03-06T05:02:51;5.00;99.90
19552;DHT22;9921;47.186;9.778;2024-03-06T05:05:21;5.00;99.90
19552;DHT22;9921;47.186;9.778;2024-03-06T05:07:49;5.10;99.90
19552;DHT22;9921;47.186;9.778;2024-03-06T05:10:18;5.00;99.90
19552;DHT22;9921;47.186;9.778;2024-03-06T05:12:47;5.00;99.90
19552;DHT22;9921;47.186;9.778;2024-03-06T05:15:15;5.00;99.90
19552;DHT22;9921;47.186;9.778;2024-03-06T05:17:42;5.10;99.90
19552;DHT22;9921;47.186;9.778;2024-03-06T05:20:12;5.10;99.90
19552;DHT22;9921;47.186;9.778;2024-03-06T05:22:41;5.10;99.90
19552;DHT22;9921;47.186;9.778;2024-03-06T05:25:08;5.10;99.90
19552;DHT22;9921;47.186;9.778;2024-03-06T05:27:37;5.10;99.90
19552;DHT22;9921;47.186;9.778;2024-03-06T05:30:09;5.10;99.90
19552;DHT22;9921;47.186;9.778;2024-03-06T05:32:38;5.10;99.90
19552;DHT22;9921;47.186;9.778;2024-03-06T05:35:05;5.10;99.90
19552;DHT22;9921;47.186;9.778;2024-03-06T05:37:35;5.10;99.90
19552;DHT22;9921;47.186;9.778;2024-03-06T05:40:02;5.00;99.90
19552;DHT22;9921;47.186;9.778;2024-03-06T05:42:32;5.10;99.90
19552;DHT22;9921;47.186;9.778;2024-03-06T05:45:00;5.10;99.90
19552;DHT22;9921;47.186;9.778;2024-03-06T05:47:32;5.10;99.90
19552;DHT22;9921;47.186;9.778;2024-03-06T05:49:59;5.10;99.90
19552;DHT22;9921;47.186;9.778;2024-03-06T05:52:29;5.20;99.90
19552;DHT22;9921;47.186;9.778;2024-03-06T05:54:56;5.10;99.90
19552;DHT22;9921;47.186;9.778;2024-03-06T05:57:23;5.10;99.90
19552;DHT22;9921;47.186;9.778;2024-03-06T05:59:50;5.10;99.90
19552;DHT22;9921;47.186;9.778;2024-03-06T06:02:19;5.10;99.90
19552;DHT22;9921;47.186;9.778;2024-03-06T06:04:49;5.00;99.90
19552;DHT22;9921;47.186;9.778;2024-03-06T06:07:20;5.00;99.90
19552;DHT22;9921;47.186;9.778;2024-03-06T06:09:49;5.00;99.90
19552;DHT22;9921;47.186;9.778;2024-03-06T06:12:16;5.00;99.90
19552;DHT22;9921;47.186;9.778;2024-03-06T06:14:48;5.00;99.90
19552;DHT22;9921;47.186;9.778;2024-03-06T06:17:17;5.00;99.90
19552;DHT22;9921;47.186;9.778;2024-03-06T06:19:51;5.00;99.90
19552;DHT22;9921;47.186;9.778;2024-03-06T06:22:18;5.10;99.90
19552;DHT22;9921;47.186;9.778;2024-03-06T06:24:45;5.10;99.90
19552;DHT22;9921;47.186;9.778;2024-03-06T06:27:14;5.10;99.90
19552;DHT22;9921;47.186;9.778;2024-03-06T06:29:46;5.00;99.90
19552;DHT22;9921;47.186;9.778;2024-03-06T06:32:15;5.00;99.90
19552;DHT22;9921;47.186;9.778;2024-03-06T06:34:46;5.00;99.90
19552;DHT22;9921;47.186;9.778;2024-03-06T06:37:14;5.00;99.90
19552;DHT22;9921;47.186;9.778;2024-03-06T06:39:50;5.00;99.90
19552;DHT22;9921;47.186;9.778;2024-03-06T06:42:17;4.90;99.90
19552;DHT22;9921;47.186;9.778;2024-03-06T06:44:48;4.90;99.90
19552;DHT22;9921;47.186;9.778;2024-03-06T06:47:15;5.00;99.90
19552;DHT22;9921;47.186;9.778;2024-03-06T06:49:42;5.00;99.90
19552;DHT22;9921;47.186;9.778;2024-03-06T06:52:10;5.00;99.90
19552;DHT22;9921;47.186;9.778;2024-03-06T06:54:38;5.10;99.90
19552;DHT22;9921;47.186;9.778;2024-03-06T06:57:05;5.10;99.90
19552;DHT22;9921;47.186;9.778;2024-03-06T06:59:34;5.20;99.90
19552;DHT22;9921;47.186;9.778;2024-03-06T07:02:02;5.30;99.90
19552;DHT22;9921;47.186;9.778;2024-03-06T07:04:30;5.40;99.90
19552;DHT22;9921;47.186;9.778;2024-03-06T07:07:01;5.40;99.90
19552;DHT22;9921;47.186;9.778;2024-03-06T07:09:29;5.50;99.90
19552;DHT22;9921;47.186;9.778;2024-03-06T07:11:58;5.60;99.90
19552;DHT22;9921;47.186;9.778;2024-03-06T07:14:25;5.60;99.90
19552;DHT22;9921;47.186;9.778;2024-03-06T07:16:51;5.70;99.90
19552;DHT22;9921;47.186;9.778;2024-03-06T07:19:18;5.70;99.90
19552;DHT22;9921;47.186;9.778;2024-03-06T07:21:45;5.80;99.90
19552;DHT22;9921;47.186;9.778;2024-03-06T07:24:13;5.80;99.90
19552;DHT22;9921;47.186;9.778;2024-03-06T07:26:41;5.90;99.90
19552;DHT22;9921;47.186;9.778;2024-03-06T07:29:10;5.90;99.90
19552;DHT22;9921;47.186;9.778;2024-03-06T07:31:44;5.90;99.90
19552;DHT22;9921;47.186;9.778;2024-03-06T07:34:11;5.90;99.90
19552;DHT22;9921;47.186;9.778;2024-03-06T07:36:40;5.90;99.90
19552;DHT22;9921;47.186;9.778;2024-03-06T07:39:08;6.00;99.90
19552;DHT22;9921;47.186;9.778;2024-03-06T07:41:36;5.90;99.90
19552;DHT22;9921;47.186;9.778;2024-03-06T07:44:06;5.90;99.90
19552;DHT22;9921;47.186;9.778;2024-03-06T07:46:35;5.90;99.90
19552;DHT22;9921;47.186;9.778;2024-03-06T07:49:03;5.90;99.90
19552;DHT22;9921;47.186;9.778;2024-03-06T07:51:32;6.00;99.90
19552;DHT22;9921;47.186;9.778;2024-03-06T07:54:01;6.00;99.90
19552;DHT22;9921;47.186;9.778;2024-03-06T07:56:29;5.90;99.90
19552;DHT22;9921;47.186;9.778;2024-03-06T07:58:56;5.80;99.90
19552;DHT22;9921;47.186;9.778;2024-03-06T08:01:23;6.00;99.90
19552;DHT22;9921;47.186;9.778;2024-03-06T08:03:52;6.10;99.90
19552;DHT22;9921;47.186;9.778;2024-03-06T08:06:19;6.00;99.90
19552;DHT22;9921;47.186;9.778;2024-03-06T08:08:48;6.10;99.90
19552;DHT22;9921;47.186;9.778;2024-03-06T08:11:19;6.10;99.90
19552;DHT22;9921;47.186;9.778;2024-03-06T08:13:49;6.20;99.90
19552;DHT22;9921;47.186;9.778;2024-03-06T08:16:16;6.30;99.90
19552;DHT22;9921;47.186;9.778;2024-03-06T08:18:43;6.30;99.90
19552;DHT22;9921;47.186;9.778;2024-03-06T08:21:11;6.30;99.90
19552;DHT22;9921;47.186;9.778;2024-03-06T08:23:38;6.40;99.90
19552;DHT22;9921;47.186;9.778;2024-03-06T08:26:08;6.40;99.90
19552;DHT22;9921;47.186;9.778;2024-03-06T08:28:38;6.50;99.90
19552;DHT22;9921;47.186;9.778;2024-03-06T08:31:04;6.60;99.90
19552;DHT22;9921;47.186;9.778;2024-03-06T08:33:31;6.70;99.90
19552;DHT22;9921;47.186;9.778;2024-03-06T08:36:00;6.80;99.90
19552;DHT22;9921;47.186;9.778;2024-03-06T08:38:36;6.90;99.90
19552;DHT22;9921;47.186;9.778;2024-03-06T08:41:03;6.90;99.90
19552;DHT22;9921;47.186;9.778;2024-03-06T08:43:31;6.90;99.90
19552;DHT22;9921;47.186;9.778;2024-03-06T08:45:58;7.00;99.90
19552;DHT22;9921;47.186;9.778;2024-03-06T08:48:25;7.10;99.90
19552;DHT22;9921;47.186;9.778;2024-03-06T08:50:54;7.10;99.90
19552;DHT22;9921;47.186;9.778;2024-03-06T08:53:21;7.10;99.90
19552;DHT22;9921;47.186;9.778;2024-03-06T08:55:53;7.20;99.90
19552;DHT22;9921;47.186;9.778;2024-03-06T08:58:20;7.10;99.90
19552;DHT22;9921;47.186;9.778;2024-03-06T09:00:47;7.20;99.90
19552;DHT22;9921;47.186;9.778;2024-03-06T09:03:14;7.20;99.90
19552;DHT22;9921;47.186;9.778;2024-03-06T09:05:44;7.20;99.90
19552;DHT22;9921;47.186;9.778;2024-03-06T09:08:11;7.10;99.90
19552;DHT22;9921;47.186;9.778;2024-03-06T09:10:39;7.10;99.90
19552;DHT22;9921;47.186;9.778;2024-03-06T09:13:10;7.10;99.90
19552;DHT22;9921;47.186;9.778;2024-03-06T09:15:38;7.10;99.90
19552;DHT22;9921;47.186;9.778;2024-03-06T09:18:06;7.00;99.90
19552;DHT22;9921;47.186;9.778;2024-03-06T09:20:35;7.00;99.90
19552;DHT22;9921;47.186;9.778;2024-03-06T09:23:02;6.90;99.90
19552;DHT22;9921;47.186;9.778;2024-03-06T09:25:30;6.90;99.90
19552;DHT22;9921;47.186;9.778;2024-03-06T09:27:59;6.80;99.90
19552;DHT22;9921;47.186;9.778;2024-03-06T09:30:31;6.80;99.90
19552;DHT22;9921;47.186;9.778;2024-03-06T09:32:59;6.80;99.90
19552;DHT22;9921;47.186;9.778;2024-03-06T09:35:26;6.80;99.90
19552;DHT22;9921;47.186;9.778;2024-03-06T09:37:53;6.80;99.90
19552;DHT22;9921;47.186;9.778;2024-03-06T09:40:24;6.80;99.90
19552;DHT22;9921;47.186;9.778;2024-03-06T09:42:53;6.70;99.90
19552;DHT22;9921;47.186;9.778;2024-03-06T09:45:22;6.70;99.90
19552;DHT22;9921;47.186;9.778;2024-03-06T09:47:50;6.70;99.90
19552;DHT22;9921;47.186;9.778;2024-03-06T09:50:22;6.80;99.90
19552;DHT22;9921;47.186;9.778;2024-03-06T09:52:51;6.80;99.90
19552;DHT22;9921;47.186;9.778;2024-03-06T09:55:18;6.90;99.90
19552;DHT22;9921;47.186;9.778;2024-03-06T09:57:45;6.80;99.90
19552;DHT22;9921;47.186;9.778;2024-03-06T10:00:13;6.70;99.90
19552;DHT22;9921;47.186;9.778;2024-03-06T10:02:48;6.70;99.90
19552;DHT22;9921;47.186;9.778;2024-03-06T10:05:31;6.60;99.90
19552;DHT22;9921;47.186;9.778;2024-03-06T10:08:01;6.50;99.90
19552;DHT22;9921;47.186;9.778;2024-03-06T10:10:32;6.50;99.90
19552;DHT22;9921;47.186;9.778;2024-03-06T10:13:00;6.40;99.90
19552;DHT22;9921;47.186;9.778;2024-03-06T10:15:29;6.50;99.90
19552;DHT22;9921;47.186;9.778;2024-03-06T10:18:13;6.50;99.90
19552;DHT22;9921;47.186;9.778;2024-03-06T10:20:44;6.60;99.90
19552;DHT22;9921;47.186;9.778;2024-03-06T10:23:12;6.70;99.90
19552;DHT22;9921;47.186;9.778;2024-03-06T10:25:39;6.80;99.90
19552;DHT22;9921;47.186;9.778;2024-03-06T10:28:09;6.90;99.90
19552;DHT22;9921;47.186;9.778;2024-03-06T10:30:39;6.90;99.90
19552;DHT22;9921;47.186;9.778;2024-03-06T10:33:09;6.90;99.90
19552;DHT22;9921;47.186;9.778;2024-03-06T10:35:37;6.90;99.90
19552;DHT22;9921;47.186;9.778;2024-03-06T10:38:08;6.90;99.90
19552;DHT22;9921;47.186;9.778;2024-03-06T10:40:37;6.80;99.90
19552;DHT22;9921;47.186;9.778;2024-03-06T10:43:05;6.80;99.90
19552;DHT22;9921;47.186;9.778;2024-03-06T10:45:39;6.80;99.90
19552;DHT22;9921;47.186;9.778;2024-03-06T10:48:08;6.90;99.90
19552;DHT22;9921;47.186;9.778;2024-03-06T10:50:38;7.00;99.90
19552;DHT22;9921;47.186;9.778;2024-03-06T10:53:09;7.10;99.90
19552;DHT22;9921;47.186;9.778;2024-03-06T10:55:39;7.10;99.90
19552;DHT22;9921;47.186;9.778;2024-03-06T10:58:10;7.10;99.90
19552;DHT22;9921;47.186;9.778;2024-03-06T11:00:41;7.10;99.90
19552;DHT22;9921;47.186;9.778;2024-03-06T11:03:12;7.20;99.90
19552;DHT22;9921;47.186;9.778;2024-03-06T11:05:41;7.20;99.90
19552;DHT22;9921;47.186;9.778;2024-03-06T11:08:12;7.20;99.90
19552;DHT22;9921;47.186;9.778;2024-03-06T11:10:42;7.20;99.90
19552;DHT22;9921;47.186;9.778;2024-03-06T11:13:21;7.30;99.90
19552;DHT22;9921;47.186;9.778;2024-03-06T11:15:50;7.30;99.90
19552;DHT22;9921;47.186;9.778;2024-03-06T11:18:42;7.40;99.90
19552;DHT22;9921;47.186;9.778;2024-03-06T11:21:32;7.30;99.90
19552;DHT22;9921;47.186;9.778;2024-03-06T11:24:33;7.30;99.90
19552;DHT22;9921;47.186;9.778;2024-03-06T11:27:02;7.30;99.90
19552;DHT22;9921;47.186;9.778;2024-03-06T11:30:04;7.30;99.90
19552;DHT22;9921;47.186;9.778;2024-03-06T11:32:36;7.30;99.90
19552;DHT22;9921;47.186;9.778;2024-03-06T11:35:04;7.20;99.90
19552;DHT22;9921;47.186;9.778;2024-03-06T11:37:37;7.20;99.90
19552;DHT22;9921;47.186;9.778;2024-03-06T11:40:09;7.20;99.90
19552;DHT22;9921;47.186;9.778;2024-03-06T11:42:37;7.20;99.90
19552;DHT22;9921;47.186;9.778;2024-03-06T11:45:13;7.30;99.90
19552;DHT22;9921;47.186;9.778;2024-03-06T11:47:58;7.20;99.90
19552;DHT22;9921;47.186;9.778;2024-03-06T11:50:28;7.30;99.90
19552;DHT22;9921;47.186;9.778;2024-03-06T11:52:57;7.40;99.90
19552;DHT22;9921;47.186;9.778;2024-03-06T11:55:25;7.40;99.90
19552;DHT22;9921;47.186;9.778;2024-03-06T11:57:52;7.30;99.90
19552;DHT22;9921;47.186;9.778;2024-03-06T12:00:21;7.30;99.90
19552;DHT22;9921;47.186;9.778;2024-03-06T12:02:50;7.40;99.90
19552;DHT22;9921;47.186;9.778;2024-03-06T12:05:17;7.40;99.90
19552;DHT22;9921;47.186;9.778;2024-03-06T12:07:47;7.40;99.90
19552;DHT22;9921;47.186;9.778;2024-03-06T12:10:14;7.40;99.90
19552;DHT22;9921;47.186;9.778;2024-03-06T12:12:45;7.40;99.90
19552;DHT22;9921;47.186;9.778;2024-03-06T12:15:16;7.50;99.90
19552;DHT22;9921;47.186;9.778;2024-03-06T12:17:45;7.40;99.90
19552;DHT22;9921;47.186;9.778;2024-03-06T12:20:13;7.40;99.90
19552;DHT22;9921;47.186;9.778;2024-03-06T12:22:49;7.40;99.90
19552;DHT22;9921;47.186;9.778;2024-03-06T12:25:21;7.40;99.90
19552;DHT22;9921;47.186;9.778;2024-03-06T12:28:10;7.40;99.90
19552;DHT22;9921;47.186;9.778;2024-03-06T12:30:41;7.30;99.90
19552;DHT22;9921;47.186;9.778;2024-03-06T12:33:08;7.30;99.90
19552;DHT22;9921;47.186;9.778;2024-03-06T12:35:37;7.20;99.90
19552;DHT22;9921;47.186;9.778;2024-03-06T12:38:11;7.20;99.90
19552;DHT22;9921;47.186;9.778;2024-03-06T12:40:39;7.20;99.90
19552;DHT22;9921;47.186;9.778;2024-03-06T12:43:09;7.30;99.90
19552;DHT22;9921;47.186;9.778;2024-03-06T12:45:38;7.20;99.90
19552;DHT22;9921;47.186;9.778;2024-03-06T12:48:05;7.30;99.90
19552;DHT22;9921;47.186;9.778;2024-03-06T12:50:32;7.30;99.90
19552;DHT22;9921;47.186;9.778;2024-03-06T12:53:02;7.30;99.90
19552;DHT22;9921;47.186;9.778;2024-03-06T12:55:30;7.40;99.90
19552;DHT22;9921;47.186;9.778;2024-03-06T12:57:58;7.40;99.90
19552;DHT22;9921;47.186;9.778;2024-03-06T13:00:27;7.40;99.90
19552;DHT22;9921;47.186;9.778;2024-03-06T13:02:54;7.40;99.90
19552;DHT22;9921;47.186;9.778;2024-03-06T13:05:21;7.50;99.90
19552;DHT22;9921;47.186;9.778;2024-03-06T13:07:48;7.50;99.90
19552;DHT22;9921;47.186;9.778;2024-03-06T13:10:15;7.50;99.90
19552;DHT22;9921;47.186;9.778;2024-03-06T13:12:43;7.70;99.90
19552;DHT22;9921;47.186;9.778;2024-03-06T13:15:12;7.70;99.90
19552;DHT22;9921;47.186;9.778;2024-03-06T13:17:40;7.70;99.90
19552;DHT22;9921;47.186;9.778;2024-03-06T13:20:07;7.70;99.90
19552;DHT22;9921;47.186;9.778;2024-03-06T13:22:37;7.60;99.90
19552;DHT22;9921;47.186;9.778;2024-03-06T13:25:05;7.50;99.90
19552;DHT22;9921;47.186;9.778;2024-03-06T13:27:31;7.50;99.90
19552;DHT22;9921;47.186;9.778;2024-03-06T13:30:04;7.40;99.90
19552;DHT22;9921;47.186;9.778;2024-03-06T13:32:33;7.40;99.90
19552;DHT22;9921;47.186;9.778;2024-03-06T13:35:03;7.30;99.90
19552;DHT22;9921;47.186;9.778;2024-03-06T13:37:31;7.20;99.90
19552;DHT22;9921;47.186;9.778;2024-03-06T13:40:00;7.10;99.90
19552;DHT22;9921;47.186;9.778;2024-03-06T13:42:28;7.20;99.90
19552;DHT22;9921;47.186;9.778;2024-03-06T13:44:55;7.20;99.90
19552;DHT22;9921;47.186;9.778;2024-03-06T13:47:22;7.40;99.90
19552;DHT22;9921;47.186;9.778;2024-03-06T13:49:49;7.40;99.90
19552;DHT22;9921;47.186;9.778;2024-03-06T13:52:17;7.50;99.90
19552;DHT22;9921;47.186;9.778;2024-03-06T13:54:51;7.50;99.90
19552;DHT22;9921;47.186;9.778;2024-03-06T13:57:18;7.60;99.90
19552;DHT22;9921;47.186;9.778;2024-03-06T13:59:45;7.60;99.90
19552;DHT22;9921;47.186;9.778;2024-03-06T14:02:11;7.50;99.90
19552;DHT22;9921;47.186;9.778;2024-03-06T14:04:38;7.40;99.90
19552;DHT22;9921;47.186;9.778;2024-03-06T14:07:09;7.40;99.90
19552;DHT22;9921;47.186;9.778;2024-03-06T14:09:39;7.30;99.90
19552;DHT22;9921;47.186;9.778;2024-03-06T14:12:07;7.20;99.90
19552;DHT22;9921;47.186;9.778;2024-03-06T14:14:34;7.20;99.90
19552;DHT22;9921;47.186;9.778;2024-03-06T14:17:04;7.10;99.90
19552;DHT22;9921;47.186;9.778;2024-03-06T14:19:31;7.10;99.90
19552;DHT22;9921;47.186;9.778;2024-03-06T14:21:58;7.20;99.90
19552;DHT22;9921;47.186;9.778;2024-03-06T14:24:26;7.20;99.90
19552;DHT22;9921;47.186;9.778;2024-03-06T14:26:57;7.20;99.90
19552;DHT22;9921;47.186;9.778;2024-03-06T14:29:24;7.20;99.90
19552;DHT22;9921;47.186;9.778;2024-03-06T14:31:53;7.10;99.90
19552;DHT22;9921;47.186;9.778;2024-03-06T14:34:26;7.20;99.90
19552;DHT22;9921;47.186;9.778;2024-03-06T14:36:54;7.20;99.90
19552;DHT22;9921;47.186;9.778;2024-03-06T14:39:23;7.20;99.90
19552;DHT22;9921;47.186;9.778;2024-03-06T14:41:51;7.30;99.90
19552;DHT22;9921;47.186;9.778;2024-03-06T14:44:19;7.20;99.90
19552;DHT22;9921;47.186;9.778;2024-03-06T14:46:51;7.20;99.90
19552;DHT22;9921;47.186;9.778;2024-03-06T14:49:21;7.30;99.90
19552;DHT22;9921;47.186;9.778;2024-03-06T14:51:48;7.20;99.90
19552;DHT22;9921;47.186;9.778;2024-03-06T14:54:15;7.10;99.90
19552;DHT22;9921;47.186;9.778;2024-03-06T14:56:41;7.20;99.90
19552;DHT22;9921;47.186;9.778;2024-03-06T14:59:08;7.10;99.90
19552;DHT22;9921;47.186;9.778;2024-03-06T15:01:40;7.10;99.90
19552;DHT22;9921;47.186;9.778;2024-03-06T15:04:07;7.00;99.90
19552;DHT22;9921;47.186;9.778;2024-03-06T15:06:34;6.90;99.90
19552;DHT22;9921;47.186;9.778;2024-03-06T15:09:01;6.90;99.90
19552;DHT22;9921;47.186;9.778;2024-03-06T15:11:27;6.80;99.90
19552;DHT22;9921;47.186;9.778;2024-03-06T15:13:57;6.70;99.90
19552;DHT22;9921;47.186;9.778;2024-03-06T15:16:24;6.70;99.90
19552;DHT22;9921;47.186;9.778;2024-03-06T15:18:52;6.70;99.90
19552;DHT22;9921;47.186;9.778;2024-03-06T15:21:27;6.70;99.90
19552;DHT22;9921;47.186;9.778;2024-03-06T15:23:53;6.60;99.90
19552;DHT22;9921;47.186;9.778;2024-03-06T15:26:20;6.70;99.90
19552;DHT22;9921;47.186;9.778;2024-03-06T15:28:47;6.70;99.90
19552;DHT22;9921;47.186;9.778;2024-03-06T15:31:15;6.60;99.90
19552;DHT22;9921;47.186;9.778;2024-03-06T15:33:43;6.60;99.90
19552;DHT22;9921;47.186;9.778;2024-03-06T15:36:14;6.70;99.90
19552;DHT22;9921;47.186;9.778;2024-03-06T15:38:41;6.70;99.90
19552;DHT22;9921;47.186;9.778;2024-03-06T15:41:08;6.70;99.90
19552;DHT22;9921;47.186;9.778;2024-03-06T15:43:35;6.70;99.90
19552;DHT22;9921;47.186;9.778;2024-03-06T15:46:04;6.70;99.90
19552;DHT22;9921;47.186;9.778;2024-03-06T15:48:31;6.70;99.90
19552;DHT22;9921;47.186;9.778;2024-03-06T15:50:59;6.70;99.90
19552;DHT22;9921;47.186;9.778;2024-03-06T15:53:36;6.70;99.90
19552;DHT22;9921;47.186;9.778;2024-03-06T15:56:03;6.70;99.90
19552;DHT22;9921;47.186;9.778;2024-03-06T15:58:30;6.70;99.90
19552;DHT22;9921;47.186;9.778;2024-03-06T16:00:58;6.70;99.90
19552;DHT22;9921;47.186;9.778;2024-03-06T16:03:26;6.70;99.90
19552;DHT22;9921;47.186;9.778;2024-03-06T16:05:55;6.70;99.90
19552;DHT22;9921;47.186;9.778;2024-03-06T16:08:22;6.70;99.90
19552;DHT22;9921;47.186;9.778;2024-03-06T16:10:56;6.70;99.90
19552;DHT22;9921;47.186;9.778;2024-03-06T16:13:24;6.60;99.90